Flight Track Log - Related Links

Times and Time Zones

All times are in EST time to prevent confusion due to time zone crossing. See the SWA558 flight status page for this flight to view local times or setup timezone preferences in your user account.

Time Position Orientation Groundspeed Altitude Reporting Facility
EST Latitude Longitude Course Direction KTS MPH feet Rate Location/Type
Fri 10:50:07 PM 36.0758 -115.1869 267° West 155 178 4,400  Level Los Angeles Center
Fri 10:51:13 PM 36.0575 -115.2619 253° West 206 237 7,000 1,339 Climbing Los Angeles Center
Fri 10:52:08 PM 36.0061 -115.2842 199° South 207 238 7,100 97 Climbing Los Angeles Center
Fri 10:52:15 PM 36.0033 -115.2853 198° South 208 239 7,100 -88 Level Los Angeles Center
Fri 10:53:16 PM 35.9411 -115.2742 172° South 262 302 7,000 927 Descending Los Angeles Center
Fri 10:54:18 PM 35.9369 -115.1706 93° East 286 329 9,000 2,780 Climbing Los Angeles Center
Fri 10:55:19 PM 35.9361 -115.0661 91° East 317 365 12,700 3,756 Climbing Los Angeles Center
Fri 10:56:21 PM 35.9358 -114.9369 90° East 353 406 16,700 3,463 Climbing Los Angeles Center
Fri 10:57:22 PM 35.9322 -114.8181 92° East 381 438 19,800 3,024 Climbing Los Angeles Center
Fri 10:58:24 PM 35.9322 -114.6806 90° East 398 458 22,900 2,371 Climbing Los Angeles Center
Fri 10:59:26 PM 35.9300 -114.5344 91° East 424 488 24,700 1,935 Climbing Los Angeles Center
Fri 11:00:28 PM 35.9283 -114.3525 91° East 440 506 26,900 1,902 Climbing Los Angeles Center
Fri 11:01:29 PM 35.9261 -114.2000 91° East 444 511 28,600 1,672 Climbing Los Angeles Center
Fri 11:02:30 PM 35.9225 -114.0467 92° East 447 514 30,300 1,707 Climbing Los Angeles Center
Fri 11:03:32 PM 35.8664 -113.9108 117° Southeast 443 510 32,100 1,707 Climbing Los Angeles Center
Fri 11:04:33 PM 35.8050 -113.7817 120° Southeast 437 503 33,800 1,707 Climbing Los Angeles Center
Fri 11:05:35 PM 35.7436 -113.6542 121° Southeast 434 499 35,600 1,694 Climbing Los Angeles Center
Fri 11:06:37 PM 35.6808 -113.5219 120° Southeast 429 494 37,300 1,659 Climbing Los Angeles Center
Fri 11:07:38 PM 35.6208 -113.3986 121° Southeast 424 488 39,000 1,220 Climbing Los Angeles Center
Fri 11:08:40 PM 35.5519 -113.2558 121° Southeast 418 481 39,800 439 Climbing Los Angeles Center
Fri 11:09:41 PM 35.4881 -113.1253 121° Southeast 440 506 39,900 195 Climbing Los Angeles Center
Fri 11:10:43 PM 35.4200 -112.9839 121° Southeast 473 544 40,200 347 Climbing Los Angeles Center
Fri 11:11:42 PM 35.3564 -112.8567 121° Southeast 493 567 40,600 400 Climbing Albuquerque Center
Fri 11:12:43 PM 35.2797 -112.7006 121° Southeast 507 583 41,000 197 Climbing Albuquerque Center
Fri 11:13:44 PM 35.2067 -112.5542 121° Southeast 507 583 41,000  Level Albuquerque Center
Fri 11:14:46 PM 35.1336 -112.4075 121° Southeast 506 582 41,000  Level Albuquerque Center
Fri 11:15:47 PM 35.0606 -112.2622 122° Southeast 506 582 41,000  Level Albuquerque Center
Fri 11:16:48 PM 34.9733 -112.0875 121° Southeast 505 581 41,000  Level Albuquerque Center
Fri 11:17:50 PM 34.9006 -111.9439 122° Southeast 503 579 41,000  Level Albuquerque Center
Fri 11:18:51 PM 34.8281 -111.7994 121° Southeast 502 578 41,000  Level Albuquerque Center
Fri 11:19:52 PM 34.7558 -111.6564 122° Southeast 502 578 41,000  Level Albuquerque Center
Fri 11:20:54 PM 34.6933 -111.5056 117° Southeast 502 578 41,000  Level Albuquerque Center
Fri 11:21:55 PM 34.6539 -111.3431 106° East 501 577 41,000  Level Albuquerque Center
Fri 11:22:56 PM 34.6139 -111.1814 107° East 499 574 41,000  Level Albuquerque Center
Fri 11:23:57 PM 34.5733 -111.0189 107° East 502 578 41,000  Level Albuquerque Center
Fri 11:24:59 PM 34.5333 -110.8575 107° East 500 575 41,000  Level Albuquerque Center
Fri 11:26:00 PM 34.4867 -110.6636 106° East 499 574 41,000  Level Albuquerque Center
Fri 11:27:01 PM 34.4481 -110.5025 106° East 498 573 41,000  Level Albuquerque Center
Fri 11:28:03 PM 34.4033 -110.3350 108° East 508 585 41,000  Level Albuquerque Center
Fri 11:29:04 PM 34.3644 -110.1803 107° East 507 583 41,000  Level Albuquerque Center
Fri 11:30:05 PM 34.3175 -109.9992 107° East 506 582 41,000  Level Albuquerque Center
Fri 11:31:07 PM 34.2775 -109.8456 107° East 504 580 41,000  Level Albuquerque Center
Fri 11:32:08 PM 34.2381 -109.6911 107° East 503 579 41,000  Level Albuquerque Center
Fri 11:33:09 PM 34.1917 -109.5133 107° East 501 577 41,000  Level Albuquerque Center
Fri 11:34:10 PM 34.1478 -109.3483 108° East 499 574 41,000  Level Albuquerque Center
Fri 11:35:12 PM 34.1056 -109.1894 108° East 498 573 41,000  Level Albuquerque Center
Fri 11:36:13 PM 34.0642 -109.0308 107° East 500 575 41,000  Level Albuquerque Center
Fri 11:37:14 PM 34.0211 -108.8700 108° East 498 573 41,000  Level Albuquerque Center
Fri 11:38:15 PM 33.9767 -108.7103 109° East 499 574 41,000  Level Albuquerque Center
Fri 11:39:17 PM 33.9339 -108.5511 108° East 500 575 41,000  Level Albuquerque Center
Fri 11:40:18 PM 33.8850 -108.3711 108° East 505 581 41,000  Level Albuquerque Center
Fri 11:41:19 PM 33.8419 -108.2119 108° East 504 580 41,000  Level Albuquerque Center
Fri 11:42:21 PM 33.7983 -108.0553 108° East 497 572 41,000  Level Albuquerque Center
Fri 11:43:22 PM 33.7519 -107.8961 109° East 500 575 41,000  Level Albuquerque Center
Fri 11:44:23 PM 33.7086 -107.7375 108° East 501 577 41,000  Level Albuquerque Center
Fri 11:45:24 PM 33.6631 -107.5781 109° East 503 579 41,000  Level Albuquerque Center
Fri 11:46:26 PM 33.6172 -107.4183 109° East 504 580 41,000  Level Albuquerque Center
Fri 11:47:27 PM 33.5731 -107.2606 109° East 501 577 41,000  Level Albuquerque Center
Fri 11:48:28 PM 33.5267 -107.1006 109° East 505 581 41,000  Level Albuquerque Center
Fri 11:49:29 PM 33.4808 -106.9428 109° East 503 579 41,000  Level Albuquerque Center
Fri 11:50:30 PM 33.4358 -106.7839 109° East 502 578 41,000  Level Albuquerque Center
Fri 11:51:32 PM 33.3806 -106.5953 109° East 501 577 41,000  Level Albuquerque Center
Fri 11:52:33 PM 33.3353 -106.4375 109° East 499 574 41,000  Level Albuquerque Center
Fri 11:53:34 PM 33.2883 -106.2803 110° East 501 577 41,000  Level Albuquerque Center
Fri 11:54:35 PM 33.2425 -106.1231 109° East 501 577 41,000  Level Albuquerque Center
Fri 11:55:36 PM 33.1956 -105.9656 110° East 501 577 41,000  Level Albuquerque Center
Fri 11:56:37 PM 33.1481 -105.8086 110° East 502 578 41,000  Level Albuquerque Center
Fri 11:57:39 PM 33.1014 -105.6522 110° East 501 577 41,000  Level Albuquerque Center
Fri 11:58:40 PM 33.0461 -105.4708 110° East 509 586 41,000  Level Albuquerque Center
Fri 11:59:41 PM 32.9994 -105.3150 110° East 504 580 41,000  Level Albuquerque Center
Sat 12:00:42 AM 32.9514 -105.1581 110° East 505 581 41,000  Level Albuquerque Center
Sat 12:01:43 AM 32.9053 -105.0033 110° East 502 578 41,000  Level Albuquerque Center
Sat 12:02:44 AM 32.8539 -104.8361 110° East 503 579 41,000  Level Albuquerque Center
Sat 12:03:45 AM 32.8064 -104.6811 110° East 503 579 41,000  Level Albuquerque Center
Sat 12:04:46 AM 32.7575 -104.5242 110° East 507 583 41,000  Level Albuquerque Center
Sat 12:05:47 AM 32.7100 -104.3672 110° East 507 583 41,000  Level Albuquerque Center
Sat 12:06:48 AM 32.6567 -104.1992 111° Southeast 508 585 41,000  Level Albuquerque Center
Sat 12:07:49 AM 32.6078 -104.0433 110° East 508 585 41,000  Level Albuquerque Center
Sat 12:08:50 AM 32.5656 -103.9083 110° East 498 573 41,000  Level Albuquerque Center
Sat 12:09:51 AM 32.5153 -103.7533 111° Southeast 503 579 41,000  Level Albuquerque Center
Sat 12:10:52 AM 32.4667 -103.5983 110° East 504 580 41,000  Level Albuquerque Center
Sat 12:11:53 AM 32.4147 -103.4456 112° Southeast 503 579 41,000  Level Albuquerque Center
Sat 12:13:46 AM 32.3158 -103.1394 111° Southeast 502 578 41,000  Level Fort Worth Center
Sat 12:14:47 AM 32.2650 -102.9861 111° Southeast 503 579 41,000  Level Fort Worth Center
Sat 12:15:48 AM 32.2147 -102.8353 111° Southeast 501 577 41,000  Level Fort Worth Center
Sat 12:16:49 AM 32.1644 -102.6844 111° Southeast 499 574 41,000  Level Fort Worth Center
Sat 12:17:50 AM 32.1050 -102.5056 111° Southeast 502 578 41,000  Level Fort Worth Center
Sat 12:18:51 AM 32.0547 -102.3522 111° Southeast 499 574 41,000  Level Fort Worth Center
Sat 12:19:51 AM 32.0044 -102.1983 111° Southeast 500 575 41,000  Level Fort Worth Center
Sat 12:20:52 AM 31.9519 -102.0450 112° Southeast 502 578 41,000  Level Fort Worth Center
Sat 12:21:53 AM 31.8994 -101.8903 112° Southeast 505 581 41,000  Level Fort Worth Center
Sat 12:22:54 AM 31.8469 -101.7378 112° Southeast 503 579 41,000  Level Fort Worth Center
Sat 12:23:54 AM 31.7950 -101.5853 112° Southeast 501 577 41,000  Level Fort Worth Center
Sat 12:24:55 AM 31.7428 -101.4353 112° Southeast 497 572 41,000  Level Fort Worth Center
Sat 12:25:56 AM 31.6908 -101.2825 112° Southeast 503 579 41,000  Level Fort Worth Center
Sat 12:26:57 AM 31.6386 -101.1300 112° Southeast 503 579 41,000  Level Fort Worth Center
Sat 12:27:57 AM 31.5842 -100.9775 113° Southeast 506 582 41,000  Level Fort Worth Center
Sat 12:28:58 AM 31.5303 -100.8250 112° Southeast 507 583 41,000  Level Fort Worth Center
Sat 12:29:59 AM 31.4769 -100.6719 112° Southeast 507 583 41,000  Level Fort Worth Center
Sat 12:30:46 AM 31.4311 -100.5400 112° Southeast 511 588 41,000  Level Houston Center
Sat 12:31:46 AM 31.3772 -100.3858 112° Southeast 512 589 41,000  Level Houston Center
Sat 12:32:48 AM 31.3225 -100.2319 113° Southeast 513 590 41,000  Level Houston Center
Sat 12:33:47 AM 31.2675 -100.0783 113° Southeast 512 589 41,000  Level Houston Center
Sat 12:35:50 AM 31.1572 -99.7744 113° Southeast 506 582 41,000  Level Houston Center
Sat 12:36:51 AM 31.1033 -99.6236 113° Southeast 503 579 41,000  Level Houston Center
Sat 12:38:49 AM 30.9944 -99.3161 112° Southeast 514 592 41,000  Level Houston Center
Sat 12:39:50 AM 30.9414 -99.1622 112° Southeast 513 590 41,000  Level Houston Center
Sat 12:40:51 AM 30.8933 -99.0219 112° Southeast 515 593 41,000  Level Houston Center
Sat 12:41:50 AM 30.8389 -98.8678 112° Southeast 512 589 41,000  Level Houston Center
Sat 12:42:51 AM 30.7839 -98.7131 112° Southeast 514 592 41,000  Level Houston Center
Sat 12:43:52 AM 30.7286 -98.5572 112° Southeast 517 595 41,000  Level Houston Center
Sat 12:44:52 AM 30.6739 -98.4022 112° Southeast 515 593 41,000  Level Houston Center
Sat 12:45:55 AM 30.6189 -98.2483 113° Southeast 514 592 41,000  Level Houston Center
Sat 12:46:55 AM 30.5639 -98.0944 113° Southeast 514 592 41,000  Level Houston Center
Sat 12:48:55 AM 30.4531 -97.7894 113° Southeast 511 588 41,000  Level Houston Center
Sat 12:49:56 AM 30.3981 -97.6364 113° Southeast 513 590 41,000 -650 Level Houston Center
Sat 12:50:55 AM 30.3433 -97.4842 113° Southeast 512 589 39,700 -1,500 Descending Houston Center
Sat 12:51:56 AM 30.2889 -97.3361 113° Southeast 500 575 38,000 -2,250 Descending Houston Center
Sat 12:52:55 AM 30.2358 -97.1928 113° Southeast 487 560 35,200 -3,181 Descending Houston Center
Sat 12:53:19 AM 30.2092 -97.1253 115° Southeast 488 562 33,600 -3,505 Descending Houston Center
Sat 12:54:36 AM 30.1344 -96.9208 113° Southeast 509 586 29,300 -2,909 Descending Houston Center
Sat 12:54:58 AM 30.1250 -96.8933 112° Southeast 506 582 28,800 -2,613 Descending Houston Center
Sat 12:55:38 AM 30.0814 -96.7817 114° Southeast 500 575 26,600 -3,049 Descending Houston Center
Sat 12:55:59 AM 30.0656 -96.7322 110° East 496 571 25,700 -2,769 Descending Houston Center
Sat 12:56:43 AM 30.0222 -96.6242 115° Southeast 474 545 23,600 -2,644 Descending Houston Center
Sat 12:56:58 AM 30.0128 -96.5936 110° East 476 548 23,100 -2,262 Descending Houston Center
Sat 12:57:44 AM 29.9711 -96.4850 114° Southeast 449 517 21,300 -2,264 Descending Houston Center
Sat 12:58:44 AM 29.9314 -96.3617 110° East 415 478 19,100 -2,400 Descending Houston Center
Sat 12:59:39 AM 29.8944 -96.2478 110° East 402 463 16,700 -2,504 Descending Houston Center
Sat 01:00:39 AM 29.8553 -96.1319 111° Southeast 394 453 14,300 -2,250 Descending Houston Center
Sat 01:00:59 AM 29.8444 -96.0989 111° Southeast 393 452 13,700 -2,239 Descending Houston Center
Sat 01:01:46 AM 29.8128 -96.0042 111° Southeast 363 418 11,800 -2,226 Descending Houston Center
Sat 01:02:01 AM 29.8083 -95.9889 109° East 375 432 11,400 -1,524 Descending Houston Center
Sat 01:02:49 AM 29.7786 -95.9022 112° Southeast 338 389 10,200 -1,345 Descending Houston Center
Sat 01:02:59 AM 29.7739 -95.8889 112° Southeast 349 402 10,100 -785 Descending Houston Center
Sat 01:04:36 AM 29.7278 -95.7542 108° East 250 288 8,800 -1,509 Descending Houston Center
Sat 01:05:38 AM 29.6972 -95.6689 112° Southeast 300 345 6,100 -2,256 Descending Houston Center
Sat 01:06:33 AM 29.6714 -95.5925 111° Southeast 279 321 4,400 -1,552 Descending Houston Center
Sat 01:07:34 AM 29.6456 -95.5161 111° Southeast 250 288 3,100 -961 Descending Houston Center
Sat 01:09:34 AM 29.6061 -95.4033 112° Southeast 166 191 1,500 -527 Descending Houston Center
Sat 01:10:36 AM 29.5961 -95.3636 106° East 119 137 1,500  Level Houston Center
Sat 01:11:04 AM 29.5942 -95.3492 99° East 136 157 1,500 -450 Level Houston Center
Sat 01:11:56 AM 29.6128 -95.3158 57° Northeast 133 153 900 -679 Descending Houston Center
Sat 01:12:50 AM 29.6336 -95.2917 45° Northeast 127 146 300 -667 Descending Houston Center
Sat 01:14:00 AM 29.6333 -95.2667 108° East  Level FlightAware Approximate
Sat 01:21:00 AM 29.6454 -95.2789 108° East  Level Estimated

Login

Don't have an account? Register now (free) for customized features, flight alerts, and more!